Time;durP1;ratioP1;P1;durP2;ratioP2;P2;SDS_P1;SDS_P2;PMS_P1;PMS_P2;Temp;Humidity;BMP_temperature;BMP_pressure;BME280_temperature;BME280_humidity;BME280_pressure;Samples;Min_cycle;Max_cycle;Signal;HPM_P1;HPM_P2
2023/09/04 00:00:33;;;;;;;13.82;10.88;;;14.50;99.90;;;;;;2091058;28;20109;-76
2023/09/04 00:01:34;;;;;;;14.38;11.30;;;14.50;99.90;;;;;;2083834;28;20036;-77
2023/09/04 00:02:35;;;;;;;15.95;10.57;;;14.50;99.90;;;;;;2087170;28;20033;-77
2023/09/04 00:03:35;;;;;;;13.35;10.35;;;14.50;99.90;;;;;;2096285;28;20111;-77
2023/09/04 00:04:36;;;;;;;11.00;9.70;;;14.50;99.90;;;;;;2091365;28;20040;-77
2023/09/04 00:05:36;;;;;;;13.07;9.95;;;14.50;99.90;;;;;;2092092;28;20156;-79
2023/09/04 00:06:37;;;;;;;13.25;9.63;;;14.50;99.90;;;;;;2086838;28;20017;-78
2023/09/04 00:07:38;;;;;;;11.95;9.98;;;14.50;99.90;;;;;;2087153;28;20032;-78
2023/09/04 00:08:38;;;;;;;11.43;9.50;;;14.40;99.90;;;;;;2079336;28;20149;-77
2023/09/04 00:09:39;;;;;;;13.20;9.98;;;14.40;99.90;;;;;;2079155;28;20052;-79
2023/09/04 00:10:40;;;;;;;14.45;10.10;;;14.40;99.90;;;;;;2089979;28;20128;-79
2023/09/04 00:11:40;;;;;;;13.23;9.35;;;14.40;99.90;;;;;;2096661;28;20032;-77
2023/09/04 00:12:41;;;;;;;13.90;9.40;;;14.40;99.90;;;;;;2092218;28;20498;-78
2023/09/04 00:13:42;;;;;;;16.23;9.50;;;14.30;99.90;;;;;;2090607;28;20483;-79
2023/09/04 00:14:42;;;;;;;13.85;9.30;;;14.30;99.90;;;;;;2094431;28;20107;-80
2023/09/04 00:15:44;;;;;;;12.73;9.48;;;14.30;99.90;;;;;;2093737;28;20039;-78
2023/09/04 00:16:44;;;;;;;14.52;9.88;;;14.30;99.90;;;;;;2092582;28;20039;-77
2023/09/04 00:17:49;;;;;;;13.93;9.13;;;14.30;99.90;;;;;;2092846;28;20161;-78
2023/09/04 00:18:50;;;;;;;13.27;8.93;;;14.30;99.90;;;;;;2093566;28;20039;-72
2023/09/04 00:19:50;;;;;;;13.05;8.60;;;14.30;99.90;;;;;;2087960;28;20119;-72
2023/09/04 00:20:54;;;;;;;12.68;8.65;;;14.30;99.90;;;;;;2092502;28;20166;-72
2023/09/04 00:21:54;;;;;;;12.02;8.45;;;14.20;99.90;;;;;;2096282;28;20130;-72
2023/09/04 00:22:58;;;;;;;11.23;7.93;;;14.20;99.90;;;;;;2087688;28;20899;-72
2023/09/04 00:23:58;;;;;;;9.93;8.20;;;14.20;99.90;;;;;;2083902;28;20044;-74
2023/09/04 00:24:59;;;;;;;11.30;7.82;;;14.20;99.90;;;;;;2094906;28;20060;-71
2023/09/04 00:25:59;;;;;;;9.48;7.47;;;14.20;99.90;;;;;;2089419;28;20105;-73
2023/09/04 00:27:00;;;;;;;10.63;6.97;;;14.20;99.90;;;;;;2090352;28;20033;-73
2023/09/04 00:28:00;;;;;;;9.25;7.00;;;14.20;99.90;;;;;;2092839;28;20053;-72
2023/09/04 00:29:01;;;;;;;10.57;7.05;;;14.10;99.90;;;;;;2095011;28;20144;-72
2023/09/04 00:30:02;;;;;;;9.20;6.85;;;14.10;99.90;;;;;;2098271;28;20119;-72
2023/09/04 00:31:03;;;;;;;8.73;7.10;;;14.10;99.90;;;;;;2088456;28;20021;-72
2023/09/04 00:32:05;;;;;;;11.27;6.75;;;14.10;99.90;;;;;;2094593;28;20028;-72
2023/09/04 00:33:06;;;;;;;7.95;6.38;;;14.10;99.90;;;;;;2090035;28;20253;-72
2023/09/04 00:34:07;;;;;;;10.60;6.88;;;14.10;99.90;;;;;;2092360;28;20032;-72
2023/09/04 00:35:08;;;;;;;8.45;6.50;;;14.10;99.90;;;;;;2093479;28;20066;-72
2023/09/04 00:36:09;;;;;;;10.07;6.80;;;14.10;99.90;;;;;;2092072;28;20380;-72
2023/09/04 00:37:10;;;;;;;10.65;6.68;;;14.10;99.90;;;;;;2089944;28;20025;-72
2023/09/04 00:38:10;;;;;;;9.80;6.72;;;14.10;99.90;;;;;;2081129;28;20029;-72
2023/09/04 00:39:11;;;;;;;10.27;6.72;;;14.10;99.90;;;;;;2091696;28;20043;-72
2023/09/04 00:40:12;;;;;;;10.68;6.70;;;14.10;99.90;;;;;;2090393;28;20097;-72
2023/09/04 00:41:12;;;;;;;9.80;6.47;;;14.10;99.90;;;;;;2085334;28;20063;-72
2023/09/04 00:42:15;;;;;;;9.57;6.60;;;14.10;99.90;;;;;;2084538;28;20041;-72
2023/09/04 00:43:15;;;;;;;9.55;6.90;;;14.00;99.90;;;;;;2090337;28;20029;-73
2023/09/04 00:44:17;;;;;;;9.95;6.25;;;14.10;99.90;;;;;;2092941;28;20391;-72
2023/09/04 00:45:18;;;;;;;10.20;6.88;;;14.10;99.90;;;;;;2088128;28;20447;-72
2023/09/04 00:46:19;;;;;;;8.00;6.50;;;14.10;99.90;;;;;;2086836;28;20114;-72
2023/09/04 00:47:22;;;;;;;9.90;6.90;;;14.00;99.90;;;;;;2103917;28;20503;-73
2023/09/04 00:48:24;;;;;;;8.95;6.55;;;14.00;99.90;;;;;;2103206;28;20032;-72
2023/09/04 00:49:26;;;;;;;9.35;6.25;;;14.00;99.90;;;;;;2089013;28;20092;-72
2023/09/04 00:50:27;;;;;;;11.45;6.63;;;14.00;99.90;;;;;;2081221;28;20034;-72
2023/09/04 00:51:28;;;;;;;7.57;6.60;;;14.00;99.90;;;;;;2082605;28;20043;-72
2023/09/04 00:52:28;;;;;;;9.15;6.60;;;14.00;99.90;;;;;;2085425;28;20025;-73
2023/09/04 00:53:30;;;;;;;9.82;6.88;;;14.00;99.90;;;;;;2082876;28;20528;-72
2023/09/04 00:54:31;;;;;;;10.15;6.72;;;14.00;99.90;;;;;;2094069;28;20062;-73
2023/09/04 00:55:32;;;;;;;9.98;6.88;;;13.90;99.90;;;;;;2093142;28;20658;-73
2023/09/04 00:56:33;;;;;;;8.93;6.65;;;13.90;99.90;;;;;;2087939;28;20111;-73
2023/09/04 00:57:35;;;;;;;9.98;6.38;;;13.90;99.90;;;;;;2087828;28;20407;-72
2023/09/04 00:58:36;;;;;;;10.75;6.65;;;13.90;99.90;;;;;;2091176;28;20111;-72
2023/09/04 00:59:36;;;;;;;9.02;6.70;;;13.90;99.90;;;;;;2092807;28;20399;-71
2023/09/04 01:00:37;;;;;;;8.15;6.40;;;13.90;99.90;;;;;;2091963;28;20021;-72
2023/09/04 01:01:38;;;;;;;7.20;6.30;;;13.90;99.90;;;;;;2092399;28;20522;-71
2023/09/04 01:02:40;;;;;;;9.15;6.97;;;13.90;99.90;;;;;;2090792;28;20028;-72
2023/09/04 01:03:41;;;;;;;10.07;7.20;;;13.90;99.90;;;;;;2090392;28;20033;-72
2023/09/04 01:04:41;;;;;;;9.23;6.85;;;13.90;99.90;;;;;;2093932;28;20024;-72
2023/09/04 01:05:42;;;;;;;8.80;6.53;;;13.90;99.90;;;;;;2092246;28;20052;-72
2023/09/04 01:06:45;;;;;;;9.23;6.50;;;13.90;99.90;;;;;;2089279;28;20023;-71
2023/09/04 01:07:46;;;;;;;9.20;6.78;;;13.90;99.90;;;;;;2092205;28;20115;-73
2023/09/04 01:08:47;;;;;;;9.40;6.53;;;13.80;99.90;;;;;;2088625;28;20553;-73
2023/09/04 01:09:47;;;;;;;8.05;6.90;;;13.80;99.90;;;;;;2080392;28;20512;-74
2023/09/04 01:10:55;;;;;;;8.05;6.57;;;13.80;99.90;;;;;;2081057;28;20063;-74
2023/09/04 01:12:01;;;;;;;9.85;6.70;;;13.80;99.90;;;;;;2075388;28;20030;-74
2023/09/04 01:13:15;;;;;;;7.72;6.30;;;13.80;99.90;;;;;;2088374;28;20056;-74
2023/09/04 01:14:19;;;;;;;10.52;6.47;;;13.80;99.90;;;;;;2082768;28;20329;-73
2023/09/04 01:15:20;;;;;;;9.90;6.50;;;13.80;99.90;;;;;;2077712;28;20037;-73
2023/09/04 01:16:22;;;;;;;8.05;6.88;;;13.70;99.90;;;;;;2085615;28;20086;-74
2023/09/04 01:17:24;;;;;;;9.25;6.60;;;13.80;99.90;;;;;;2091066;28;20059;-74
2023/09/04 01:18:25;;;;;;;10.35;6.55;;;13.80;99.90;;;;;;2075937;28;20124;-73
2023/09/04 01:19:26;;;;;;;7.72;6.32;;;13.80;99.90;;;;;;2074700;28;20057;-73
2023/09/04 01:20:28;;;;;;;9.80;6.35;;;13.80;99.90;;;;;;2090635;28;20028;-73
2023/09/04 01:21:29;;;;;;;9.07;6.15;;;13.80;99.90;;;;;;2083356;28;20033;-73
2023/09/04 01:22:30;;;;;;;12.02;6.68;;;13.80;99.90;;;;;;2086651;28;20109;-74
2023/09/04 01:23:32;;;;;;;9.02;6.40;;;13.80;99.90;;;;;;2083130;28;20046;-73
2023/09/04 01:24:34;;;;;;;11.20;6.30;;;13.80;99.90;;;;;;2084096;28;20155;-73
2023/09/04 01:25:44;;;;;;;7.38;6.28;;;13.70;99.90;;;;;;2091013;28;20147;-73
2023/09/04 01:27:27;;;;;;;10.63;6.50;;;13.70;99.90;;;;;;2087161;28;20052;-73
2023/09/04 01:28:50;;;;;;;7.60;6.18;;;13.70;99.90;;;;;;2065947;28;20501;-73
2023/09/04 01:30:13;;;;;;;9.27;6.45;;;13.70;99.90;;;;;;2068377;28;20127;-73
2023/09/04 01:31:18;;;;;;;8.40;6.78;;;13.70;99.90;;;;;;2083113;28;20044;-73
2023/09/04 01:32:30;;;;;;;8.10;6.10;;;13.70;99.90;;;;;;2091269;28;20492;-73
2023/09/04 01:33:33;;;;;;;;;;;13.60;99.90;;;;;;2076943;28;20048;-73
2023/09/04 01:34:39;;;;;;;8.15;6.53;;;13.60;99.90;;;;;;2084464;28;19912;-73
2023/09/04 01:35:42;;;;;;;7.88;6.28;;;13.60;99.90;;;;;;2092296;28;20119;-72
2023/09/04 01:36:45;;;;;;;9.38;6.53;;;13.60;99.90;;;;;;2083195;28;20032;-72
2023/09/04 01:37:46;;;;;;;7.75;6.70;;;13.60;99.90;;;;;;2079167;28;20036;-72
2023/09/04 01:38:47;;;;;;;6.90;6.20;;;13.60;99.90;;;;;;2083109;28;20021;-73
2023/09/04 01:39:51;;;;;;;9.60;6.40;;;13.60;99.90;;;;;;2087487;28;20453;-73
2023/09/04 01:40:52;;;;;;;9.02;6.00;;;13.60;99.90;;;;;;2091317;28;20773;-73
2023/09/04 01:41:52;;;;;;;9.02;6.30;;;13.60;99.90;;;;;;2080891;28;20297;-73
2023/09/04 01:42:53;;;;;;;10.45;6.10;;;13.60;99.90;;;;;;2090434;28;20032;-73
2023/09/04 01:43:54;;;;;;;11.15;6.30;;;13.50;99.90;;;;;;2095116;28;20024;-72
2023/09/04 01:44:54;;;;;;;10.00;6.45;;;13.50;99.90;;;;;;2085090;28;20028;-73
2023/09/04 01:45:55;;;;;;;7.68;6.10;;;13.40;99.90;;;;;;2090596;28;20079;-73
2023/09/04 01:46:55;;;;;;;8.40;6.15;;;13.40;99.90;;;;;;2081442;28;20039;-73
2023/09/04 01:47:56;;;;;;;8.25;6.22;;;13.40;99.90;;;;;;2071143;28;20740;-73
2023/09/04 01:48:57;;;;;;;7.90;6.30;;;13.40;99.90;;;;;;2094730;28;20071;-73
2023/09/04 01:49:57;;;;;;;9.15;6.50;;;13.40;99.90;;;;;;2091278;28;20081;-72
2023/09/04 01:50:58;;;;;;;8.48;6.55;;;13.40;99.90;;;;;;2084241;28;20098;-73
2023/09/04 01:52:00;;;;;;;9.68;6.50;;;13.40;99.90;;;;;;2083886;28;20396;-72
2023/09/04 01:53:00;;;;;;;11.60;6.57;;;13.40;99.90;;;;;;2082978;28;20218;-73
2023/09/04 01:54:01;;;;;;;10.13;6.30;;;13.40;99.90;;;;;;2079063;28;20083;-71
2023/09/04 01:55:02;;;;;;;9.25;6.28;;;13.40;99.90;;;;;;2082389;28;20036;-71
2023/09/04 01:56:02;;;;;;;8.30;6.63;;;13.40;99.90;;;;;;2079118;28;20112;-71
2023/09/04 01:57:03;;;;;;;11.45;6.90;;;13.40;99.90;;;;;;2086611;28;20079;-72
2023/09/04 01:58:04;;;;;;;9.48;6.97;;;13.40;99.90;;;;;;2088957;28;20071;-72
2023/09/04 01:59:05;;;;;;;9.15;6.40;;;13.40;99.90;;;;;;2086413;28;20167;-71
2023/09/04 02:00:07;;;;;;;9.95;6.68;;;13.40;99.90;;;;;;2091305;28;20117;-72
2023/09/04 02:01:15;;;;;;;9.00;6.70;;;13.40;99.90;;;;;;2087268;28;20033;-72
2023/09/04 02:02:16;;;;;;;8.63;6.60;;;13.40;99.90;;;;;;2086769;28;20029;-72
2023/09/04 02:03:16;;;;;;;9.10;6.57;;;13.40;99.90;;;;;;2087010;28;20033;-72
2023/09/04 02:04:17;;;;;;;8.05;6.50;;;13.40;99.90;;;;;;2086466;28;20041;-72
2023/09/04 02:05:17;;;;;;;8.38;6.55;;;13.40;99.90;;;;;;2074569;28;20040;-72
2023/09/04 02:06:18;;;;;;;10.02;6.70;;;13.30;99.90;;;;;;2079341;28;20124;-72
2023/09/04 02:07:19;;;;;;;9.43;6.43;;;13.30;99.90;;;;;;2086589;28;20025;-72
2023/09/04 02:08:20;;;;;;;10.60;6.53;;;13.40;99.90;;;;;;2084311;28;20419;-72
2023/09/04 02:09:20;;;;;;;11.57;6.65;;;13.30;99.90;;;;;;2081686;28;20041;-72
2023/09/04 02:10:23;;;;;;;9.93;6.57;;;13.30;99.90;;;;;;2083884;28;20942;-73
2023/09/04 02:11:24;;;;;;;8.80;6.50;;;13.40;99.90;;;;;;2084399;28;20021;-72
2023/09/04 02:12:25;;;;;;;8.73;6.32;;;13.30;99.90;;;;;;2090659;28;20028;-72
2023/09/04 02:13:25;;;;;;;8.85;6.93;;;13.30;99.90;;;;;;2093022;28;20558;-72
2023/09/04 02:14:28;;;;;;;9.70;6.40;;;13.30;99.90;;;;;;2093208;28;20502;-72
2023/09/04 02:15:29;;;;;;;7.38;6.60;;;13.30;99.90;;;;;;2079163;28;20415;-72
2023/09/04 02:16:30;;;;;;;9.55;7.40;;;13.30;99.90;;;;;;2080453;28;20040;-72
2023/09/04 02:17:31;;;;;;;7.63;6.75;;;13.30;99.90;;;;;;2095157;28;20483;-72
2023/09/04 02:18:31;;;;;;;10.38;6.82;;;13.30;99.90;;;;;;2082620;28;20032;-72
2023/09/04 02:19:32;;;;;;;9.48;6.70;;;13.30;99.90;;;;;;2086909;28;20055;-72
2023/09/04 02:20:32;;;;;;;7.90;6.50;;;13.30;99.90;;;;;;2103299;28;20038;-72
2023/09/04 02:21:33;;;;;;;8.95;6.50;;;13.30;99.90;;;;;;2087201;28;20025;-72
2023/09/04 02:22:33;;;;;;;9.25;6.78;;;13.30;99.90;;;;;;2087081;28;20047;-72
2023/09/04 02:23:34;;;;;;;7.75;6.68;;;13.30;99.90;;;;;;2090037;28;20021;-72
2023/09/04 02:24:35;;;;;;;8.68;6.32;;;13.30;99.90;;;;;;2089940;28;20491;-72
2023/09/04 02:25:35;;;;;;;7.65;6.35;;;13.20;99.90;;;;;;2082940;28;20043;-72
2023/09/04 02:26:37;;;;;;;7.25;6.55;;;13.30;99.90;;;;;;2080202;28;20092;-72
2023/09/04 02:27:37;;;;;;;6.72;6.05;;;13.20;99.90;;;;;;2086343;28;20043;-72
2023/09/04 02:28:38;;;;;;;7.45;6.55;;;13.20;99.90;;;;;;2091290;28;20060;-73
2023/09/04 02:29:39;;;;;;;9.95;6.53;;;13.20;99.90;;;;;;2089087;28;20029;-71
2023/09/04 02:30:39;;;;;;;7.72;6.30;;;13.20;99.90;;;;;;2087113;28;20021;-71
2023/09/04 02:31:40;;;;;;;8.13;6.47;;;13.20;99.90;;;;;;2084744;28;20036;-71
2023/09/04 02:32:41;;;;;;;8.30;6.30;;;13.20;99.90;;;;;;2089840;28;20028;-71
2023/09/04 02:33:42;;;;;;;8.50;6.57;;;13.20;99.90;;;;;;2093362;28;20020;-71
2023/09/04 02:34:43;;;;;;;9.88;6.80;;;13.20;99.90;;;;;;2082695;28;20017;-72
2023/09/04 02:35:43;;;;;;;8.57;6.47;;;13.10;99.90;;;;;;2083288;28;20047;-71
2023/09/04 02:36:44;;;;;;;8.48;6.50;;;13.10;99.90;;;;;;2083442;28;20466;-71
2023/09/04 02:37:44;;;;;;;9.02;6.22;;;13.10;99.90;;;;;;2082747;28;20091;-74
2023/09/04 02:38:46;;;;;;;8.43;6.40;;;13.10;99.90;;;;;;2082857;28;20025;-70
2023/09/04 02:39:47;;;;;;;7.43;6.22;;;13.10;99.90;;;;;;2088305;28;20060;-71
2023/09/04 02:40:47;;;;;;;7.45;6.28;;;13.10;99.90;;;;;;2092550;28;20131;-71
2023/09/04 02:41:48;;;;;;;8.65;6.30;;;13.10;99.90;;;;;;2089657;28;20124;-74
2023/09/04 02:42:48;;;;;;;9.80;6.10;;;13.10;99.90;;;;;;2087480;28;20055;-72
2023/09/04 02:43:49;;;;;;;9.68;6.65;;;13.10;99.90;;;;;;2083726;28;20059;-72
2023/09/04 02:44:49;;;;;;;9.50;6.85;;;13.00;99.90;;;;;;2084394;28;20064;-73
2023/09/04 02:45:51;;;;;;;7.93;6.28;;;13.00;99.90;;;;;;2085083;28;20044;-73
2023/09/04 02:46:52;;;;;;;8.68;6.30;;;13.00;99.90;;;;;;2084268;28;20446;-73
2023/09/04 02:47:53;;;;;;;9.05;6.50;;;13.00;99.90;;;;;;2089962;28;20090;-73
2023/09/04 02:48:53;;;;;;;11.13;6.70;;;12.90;99.90;;;;;;2085338;28;20036;-73
2023/09/04 02:49:55;;;;;;;9.55;6.68;;;13.00;99.90;;;;;;2080783;28;20025;-73
2023/09/04 02:50:59;;;;;;;7.53;6.35;;;12.90;99.90;;;;;;2086650;28;20120;-74
2023/09/04 02:51:59;;;;;;;10.93;6.65;;;12.90;99.90;;;;;;2086975;28;20090;-74
2023/09/04 02:53:00;;;;;;;8.43;6.68;;;12.90;99.90;;;;;;2082663;28;20082;-71
2023/09/04 02:54:01;;;;;;;9.00;6.65;;;12.90;99.90;;;;;;2094394;28;20398;-72
2023/09/04 02:55:02;;;;;;;8.07;6.38;;;12.90;99.90;;;;;;2089881;28;20031;-72
2023/09/04 02:56:03;;;;;;;8.82;6.55;;;12.90;99.90;;;;;;2091320;28;20032;-72
2023/09/04 02:57:04;;;;;;;8.63;6.60;;;12.90;99.90;;;;;;2083007;28;20472;-72
2023/09/04 02:58:05;;;;;;;10.52;6.28;;;12.90;99.90;;;;;;2095112;28;20025;-73
2023/09/04 02:59:05;;;;;;;8.57;6.50;;;12.90;99.90;;;;;;2095717;28;20114;-72
2023/09/04 03:00:07;;;;;;;9.15;6.55;;;12.90;99.90;;;;;;2075205;28;20037;-72
2023/09/04 03:01:07;;;;;;;9.55;6.45;;;12.90;99.90;;;;;;2091530;28;20025;-72
2023/09/04 03:02:08;;;;;;;7.40;6.40;;;12.90;99.90;;;;;;2093301;28;20149;-72
2023/09/04 03:03:09;;;;;;;8.48;6.60;;;12.90;99.90;;;;;;2085883;28;20559;-72
2023/09/04 03:04:09;;;;;;;9.13;7.03;;;12.90;99.90;;;;;;2094830;28;20039;-74
2023/09/04 03:05:10;;;;;;;8.85;6.40;;;12.90;99.90;;;;;;2092435;28;20043;-72
2023/09/04 03:06:11;;;;;;;9.82;7.13;;;12.90;99.90;;;;;;2083786;28;20053;-72
2023/09/04 03:07:13;;;;;;;9.05;6.70;;;12.90;99.90;;;;;;2080350;28;20032;-72
2023/09/04 03:08:14;;;;;;;7.80;6.20;;;12.80;99.90;;;;;;2090425;28;20043;-73
2023/09/04 03:09:15;;;;;;;8.38;6.25;;;12.80;99.90;;;;;;2081675;28;20164;-72
2023/09/04 03:10:16;;;;;;;10.15;6.55;;;12.80;99.90;;;;;;2070990;28;20276;-71
2023/09/04 03:11:17;;;;;;;8.77;6.47;;;12.80;99.90;;;;;;2076359;28;20589;-72
2023/09/04 03:12:17;;;;;;;8.30;6.68;;;12.80;99.90;;;;;;2082684;28;20028;-72
2023/09/04 03:13:18;;;;;;;8.00;6.53;;;12.80;99.90;;;;;;2083452;28;20580;-72
2023/09/04 03:14:19;;;;;;;9.85;6.80;;;12.80;99.90;;;;;;2092032;28;20402;-72
2023/09/04 03:15:19;;;;;;;8.43;6.63;;;12.80;99.90;;;;;;2091369;28;20285;-72
2023/09/04 03:16:20;;;;;;;7.82;6.63;;;12.80;99.90;;;;;;2087517;28;20129;-72
2023/09/04 03:17:21;;;;;;;8.27;6.60;;;12.80;99.90;;;;;;2090624;28;20323;-72
2023/09/04 03:18:22;;;;;;;9.55;6.70;;;12.80;99.90;;;;;;2090014;28;20323;-72
2023/09/04 03:19:23;;;;;;;9.20;7.07;;;12.80;99.90;;;;;;2086739;28;20036;-73
2023/09/04 03:20:26;;;;;;;9.30;6.57;;;12.80;99.90;;;;;;2082534;28;20031;-72
2023/09/04 03:21:32;;;;;;;8.77;6.78;;;12.80;99.90;;;;;;2088334;28;20028;-72
2023/09/04 03:22:32;;;;;;;11.32;7.10;;;12.80;99.90;;;;;;2083083;28;20051;-72
2023/09/04 03:23:33;;;;;;;8.43;6.55;;;12.80;99.90;;;;;;2091083;28;20040;-72
2023/09/04 03:24:35;;;;;;;10.70;6.90;;;12.80;99.90;;;;;;2082038;28;20029;-71
2023/09/04 03:25:37;;;;;;;10.95;7.70;;;12.80;99.90;;;;;;2082579;28;20461;-72
2023/09/04 03:26:38;;;;;;;10.50;7.05;;;12.70;99.90;;;;;;2087683;28;20455;-71
2023/09/04 03:27:40;;;;;;;10.43;7.30;;;12.70;99.90;;;;;;2079609;28;20521;-70
2023/09/04 03:28:41;;;;;;;10.82;6.70;;;12.70;99.90;;;;;;2084311;28;20021;-73
2023/09/04 03:29:42;;;;;;;8.40;6.72;;;12.80;99.90;;;;;;2091403;28;20104;-72
2023/09/04 03:30:43;;;;;;;8.65;6.88;;;12.80;99.90;;;;;;2087868;28;20063;-72
2023/09/04 03:31:44;;;;;;;10.82;7.03;;;12.70;99.90;;;;;;2084868;28;20025;-72
2023/09/04 03:32:44;;;;;;;9.65;6.75;;;12.80;99.90;;;;;;2082408;28;20033;-72
2023/09/04 03:33:45;;;;;;;9.93;7.05;;;12.80;99.90;;;;;;2083918;28;20043;-73
2023/09/04 03:34:46;;;;;;;8.82;6.75;;;12.80;99.90;;;;;;2084601;28;20495;-73
2023/09/04 03:35:46;;;;;;;9.70;6.85;;;12.80;99.90;;;;;;2091158;28;20048;-72
2023/09/04 03:36:47;;;;;;;9.88;7.03;;;12.80;99.90;;;;;;2092702;28;20103;-81
2023/09/04 03:37:48;;;;;;;10.15;7.03;;;12.70;99.90;;;;;;2076707;28;20450;-73
2023/09/04 03:38:48;;;;;;;9.05;6.57;;;12.70;99.90;;;;;;2080804;28;20025;-72
2023/09/04 03:39:49;;;;;;;9.32;6.50;;;12.70;99.90;;;;;;2085253;28;20179;-71
2023/09/04 03:40:50;;;;;;;7.18;6.40;;;12.70;99.90;;;;;;2082097;28;20558;-71
2023/09/04 03:41:51;;;;;;;9.35;6.85;;;12.70;99.90;;;;;;2078026;28;20021;-71
2023/09/04 03:42:53;;;;;;;8.50;6.43;;;12.60;99.90;;;;;;2088905;28;20025;-72
2023/09/04 03:43:55;;;;;;;8.98;6.72;;;12.70;99.90;;;;;;2091917;28;20024;-72
2023/09/04 03:44:55;;;;;;;9.48;6.35;;;12.70;99.90;;;;;;2087836;28;20176;-72
2023/09/04 03:45:57;;;;;;;9.75;7.43;;;12.70;99.90;;;;;;2087306;28;20025;-72
2023/09/04 03:46:58;;;;;;;9.80;6.90;;;12.70;99.90;;;;;;2091199;28;20082;-72
2023/09/04 03:47:58;;;;;;;10.48;7.15;;;12.70;99.90;;;;;;2088362;28;20348;-72
2023/09/04 03:48:59;;;;;;;8.20;6.90;;;12.60;99.90;;;;;;2087241;28;20025;-72
2023/09/04 03:49:59;;;;;;;9.77;6.80;;;12.70;99.90;;;;;;2085934;28;20641;-72
2023/09/04 03:51:01;;;;;;;10.07;7.60;;;12.60;99.90;;;;;;2086979;28;20029;-72
2023/09/04 03:52:02;;;;;;;9.48;6.97;;;12.60;99.90;;;;;;2085300;28;20195;-72
2023/09/04 03:53:02;;;;;;;9.43;7.28;;;12.60;99.90;;;;;;2093557;28;20033;-73
2023/09/04 03:54:04;;;;;;;9.88;7.05;;;12.60;99.90;;;;;;2091465;28;20024;-72
2023/09/04 03:55:06;;;;;;;8.98;7.25;;;12.60;99.90;;;;;;2092892;28;20050;-72
2023/09/04 03:56:09;;;;;;;7.38;6.35;;;12.60;99.90;;;;;;2096168;28;20021;-73
2023/09/04 03:57:12;;;;;;;10.85;6.88;;;12.60;99.90;;;;;;2087690;28;20024;-72
2023/09/04 03:58:13;;;;;;;8.30;6.22;;;12.60;99.90;;;;;;2084323;28;20017;-74
2023/09/04 03:59:15;;;;;;;9.70;7.05;;;12.60;99.90;;;;;;2092085;28;20137;-73
2023/09/04 04:00:16;;;;;;;10.10;6.95;;;12.60;99.90;;;;;;2084030;28;20194;-74
2023/09/04 04:01:18;;;;;;;9.63;6.70;;;12.60;99.90;;;;;;2084788;28;20587;-73
2023/09/04 04:02:19;;;;;;;10.63;7.43;;;12.60;99.90;;;;;;2082944;28;20029;-73
2023/09/04 04:03:21;;;;;;;9.95;7.07;;;12.60;99.90;;;;;;2094627;28;20032;-72
2023/09/04 04:04:21;;;;;;;9.07;7.00;;;12.60;99.90;;;;;;2082656;28;20039;-72
2023/09/04 04:05:24;;;;;;;9.02;6.97;;;12.60;99.90;;;;;;2080552;28;20021;-73
2023/09/04 04:06:25;;;;;;;9.73;7.30;;;12.50;99.90;;;;;;2091976;28;20043;-73
2023/09/04 04:07:26;;;;;;;10.48;7.10;;;12.50;99.90;;;;;;2091764;28;20032;-72
2023/09/04 04:08:26;;;;;;;9.57;7.15;;;12.50;99.90;;;;;;2088345;28;20021;-73
2023/09/04 04:09:27;;;;;;;8.85;7.20;;;12.50;99.90;;;;;;2083509;28;20472;-72
2023/09/04 04:10:27;;;;;;;10.77;7.25;;;12.50;99.90;;;;;;2086097;28;20522;-73
2023/09/04 04:11:28;;;;;;;8.55;7.03;;;12.50;99.90;;;;;;2091695;28;20031;-73
2023/09/04 04:12:29;;;;;;;8.82;7.05;;;12.40;99.90;;;;;;2088995;28;20552;-74
2023/09/04 04:13:29;;;;;;;9.77;7.18;;;12.40;99.90;;;;;;2081242;28;20050;-73
2023/09/04 04:14:30;;;;;;;11.10;7.25;;;12.40;99.90;;;;;;2083385;28;20040;-72
2023/09/04 04:15:30;;;;;;;12.25;7.82;;;12.40;99.90;;;;;;2092961;28;20425;-71
2023/09/04 04:16:33;;;;;;;8.15;6.78;;;12.40;99.90;;;;;;2086446;28;20238;-71
2023/09/04 04:17:34;;;;;;;8.80;7.05;;;12.40;99.90;;;;;;2085657;28;20033;-73
2023/09/04 04:18:35;;;;;;;8.55;6.72;;;12.40;99.90;;;;;;2085294;28;20028;-77
2023/09/04 04:19:36;;;;;;;10.98;7.15;;;12.40;99.90;;;;;;2076162;28;20032;-76
2023/09/04 04:20:37;;;;;;;8.98;7.07;;;12.40;99.90;;;;;;2084048;28;20512;-76
2023/09/04 04:21:38;;;;;;;8.30;7.07;;;12.40;99.90;;;;;;2091523;28;20397;-73
2023/09/04 04:22:42;;;;;;;9.02;7.30;;;12.40;99.90;;;;;;2090954;28;20023;-74
2023/09/04 04:23:42;;;;;;;9.73;7.80;;;12.40;99.90;;;;;;2075289;28;20017;-75
2023/09/04 04:24:43;;;;;;;8.82;7.80;;;12.30;99.90;;;;;;2083440;28;20199;-75
2023/09/04 04:25:44;;;;;;;9.68;7.57;;;12.30;99.90;;;;;;2092756;28;20063;-75
2023/09/04 04:26:44;;;;;;;9.20;7.63;;;12.30;99.90;;;;;;2079607;28;20032;-75
2023/09/04 04:27:45;;;;;;;9.75;7.72;;;12.30;99.90;;;;;;2083065;28;20102;-74
2023/09/04 04:28:46;;;;;;;9.18;7.85;;;12.40;99.90;;;;;;2091966;28;20024;-74
2023/09/04 04:29:52;;;;;;;8.90;7.25;;;12.40;99.90;;;;;;2083717;28;20654;-75
2023/09/04 04:30:53;;;;;;;11.13;7.65;;;12.40;99.90;;;;;;2076846;28;20025;-77
2023/09/04 04:31:53;;;;;;;10.65;7.00;;;12.40;99.90;;;;;;2091267;28;20016;-76
2023/09/04 04:32:54;;;;;;;8.43;7.53;;;12.40;99.90;;;;;;2086291;28;20025;-75
2023/09/04 04:33:55;;;;;;;11.57;7.32;;;12.40;99.90;;;;;;2085603;28;20108;-76
2023/09/04 04:34:56;;;;;;;9.55;7.40;;;12.40;99.90;;;;;;2085685;28;20043;-76
2023/09/04 04:35:58;;;;;;;12.10;7.50;;;12.40;99.90;;;;;;2079073;28;20041;-75
2023/09/04 04:36:59;;;;;;;9.52;7.30;;;12.50;99.90;;;;;;2080638;28;20025;-75
2023/09/04 04:38:02;;;;;;;9.65;7.35;;;12.50;99.90;;;;;;2081781;28;20613;-73
2023/09/04 04:39:03;;;;;;;14.43;7.32;;;12.40;99.90;;;;;;2078937;28;20021;-72
2023/09/04 04:40:05;;;;;;;10.52;7.45;;;12.50;99.90;;;;;;2090453;28;20035;-72
2023/09/04 04:41:07;;;;;;;9.80;7.70;;;12.50;99.90;;;;;;2088816;28;20236;-72
2023/09/04 04:42:08;;;;;;;9.38;7.20;;;12.40;99.90;;;;;;2081301;28;21102;-72
2023/09/04 04:43:09;;;;;;;8.55;7.32;;;12.50;99.90;;;;;;2091071;28;20052;-73
2023/09/04 04:44:09;;;;;;;9.70;7.47;;;12.50;99.90;;;;;;2093769;28;20017;-72
2023/09/04 04:45:10;;;;;;;8.43;7.35;;;12.50;99.90;;;;;;2091152;28;20023;-72
2023/09/04 04:46:12;;;;;;;11.13;7.30;;;12.50;99.90;;;;;;2091296;28;20099;-72
2023/09/04 04:47:13;;;;;;;14.95;7.35;;;12.50;99.90;;;;;;2091461;28;20029;-72
2023/09/04 04:48:14;;;;;;;10.60;7.30;;;12.50;99.90;;;;;;2083734;28;20118;-74
2023/09/04 04:49:21;;;;;;;9.25;7.22;;;12.50;99.90;;;;;;2095412;28;20110;-74
2023/09/04 04:50:22;;;;;;;11.40;7.57;;;12.50;99.90;;;;;;2080506;28;20118;-74
2023/09/04 04:51:23;;;;;;;8.68;7.43;;;12.50;99.90;;;;;;2078477;28;20033;-72
2023/09/04 04:52:23;;;;;;;12.35;7.60;;;12.50;99.90;;;;;;2096953;28;20115;-74
2023/09/04 04:53:25;;;;;;;9.63;7.60;;;12.50;99.90;;;;;;2100016;28;20048;-72
2023/09/04 04:54:25;;;;;;;11.32;7.60;;;12.50;99.90;;;;;;2077842;28;20119;-72
2023/09/04 04:55:26;;;;;;;9.07;7.00;;;12.50;99.90;;;;;;2075064;28;20108;-72
2023/09/04 04:56:27;;;;;;;14.43;7.00;;;12.50;99.90;;;;;;2080023;28;20060;-72
2023/09/04 04:57:28;;;;;;;9.68;7.10;;;12.60;99.90;;;;;;2080122;28;20025;-72
2023/09/04 04:58:29;;;;;;;9.30;7.22;;;12.60;99.90;;;;;;2084946;28;20040;-71
2023/09/04 04:59:30;;;;;;;9.90;7.10;;;12.60;99.90;;;;;;2072751;28;20680;-72
2023/09/04 05:00:30;;;;;;;10.60;7.35;;;12.60;99.90;;;;;;2079018;28;20085;-73
2023/09/04 05:01:31;;;;;;;10.82;7.10;;;12.70;99.90;;;;;;2094406;28;20081;-73
2023/09/04 05:02:35;;;;;;;12.13;7.30;;;12.70;99.90;;;;;;2100839;28;20031;-73
2023/09/04 05:03:36;;;;;;;10.13;7.13;;;12.70;99.90;;;;;;2091427;28;20216;-73
2023/09/04 05:04:44;;;;;;;10.32;7.30;;;12.80;99.90;;;;;;2084300;28;20056;-72
2023/09/04 05:05:45;;;;;;;10.80;7.18;;;12.90;99.90;;;;;;2082517;28;20442;-72
2023/09/04 05:06:46;;;;;;;9.15;6.82;;;12.90;99.90;;;;;;2075190;28;20036;-74
2023/09/04 05:07:47;;;;;;;10.70;7.18;;;13.00;99.90;;;;;;2074869;28;20428;-74
2023/09/04 05:08:49;;;;;;;8.18;6.88;;;13.20;99.90;;;;;;2090989;28;20022;-74
2023/09/04 05:09:54;;;;;;;9.05;6.50;;;13.30;99.90;;;;;;2079751;28;20123;-76
2023/09/04 05:11:05;;;;;;;9.18;6.38;;;13.60;99.90;;;;;;2081324;28;20039;-74
2023/09/04 05:12:08;;;;;;;9.05;5.95;;;13.90;99.90;;;;;;2085003;28;20049;-75
2023/09/04 05:13:09;;;;;;;7.05;5.97;;;14.20;99.90;;;;;;2089393;28;20053;-71
2023/09/04 05:14:10;;;;;;;6.50;5.78;;;14.40;99.90;;;;;;2084734;28;20099;-67
2023/09/04 05:15:11;;;;;;;8.75;6.63;;;14.70;99.90;;;;;;2085647;28;20017;-66
2023/09/04 05:16:12;;;;;;;7.03;5.93;;;14.90;99.90;;;;;;2090576;28;20132;-67
2023/09/04 05:17:14;;;;;;;9.07;5.80;;;15.10;99.90;;;;;;2083784;28;20029;-67
2023/09/04 05:18:14;;;;;;;9.18;5.68;;;15.30;99.90;;;;;;2090306;28;20109;-67
2023/09/04 05:19:15;;;;;;;9.80;5.53;;;15.40;99.90;;;;;;2091049;28;20028;-64